Time;durP1;ratioP1;P1;durP2;ratioP2;P2;SDS_P1;SDS_P2;PMS_P1;PMS_P2;Temp;Humidity;BMP_temperature;BMP_pressure;BME280_temperature;BME280_humidity;BME280_pressure;Samples;Min_cycle;Max_cycle;Signal;HPM_P1;HPM_P2
2023/02/02 00:01:08;;;;;;;22.27;3.70;;;;;;;;;;5009553;28;20037;-33
2023/02/02 00:03:36;;;;;;;16.60;3.60;;;;;;;;;;5011704;28;20433;-33
2023/02/02 00:06:04;;;;;;;14.55;3.20;;;;;;;;;;5010593;28;20088;-33
2023/02/02 00:08:30;;;;;;;13.07;3.53;;;;;;;;;;5011788;28;20046;-33
2023/02/02 00:10:58;;;;;;;16.50;3.60;;;;;;;;;;5032205;28;20080;-33
2023/02/02 00:13:25;;;;;;;10.30;3.15;;;;;;;;;;5032193;28;20033;-36
2023/02/02 00:15:52;;;;;;;13.38;3.58;;;;;;;;;;5017260;28;20041;-32
2023/02/02 00:18:20;;;;;;;15.02;3.55;;;;;;;;;;5010993;28;20396;-32
2023/02/02 00:20:48;;;;;;;13.55;4.57;;;;;;;;;;5013950;28;20408;-32
2023/02/02 00:23:16;;;;;;;15.73;4.00;;;;;;;;;;5011583;28;20087;-33
2023/02/02 00:25:43;;;;;;;14.38;4.50;;;;;;;;;;5017928;28;20022;-32
2023/02/02 00:28:10;;;;;;;14.60;3.85;;;;;;;;;;5018029;28;20746;-33
2023/02/02 00:30:37;;;;;;;15.70;3.53;;;;;;;;;;5015176;28;20031;-32
2023/02/02 00:33:04;;;;;;;12.20;3.33;;;;;;;;;;5014347;28;20504;-31
2023/02/02 00:35:31;;;;;;;20.27;3.97;;;;;;;;;;5010299;28;20037;-32
2023/02/02 00:37:58;;;;;;;16.35;4.07;;;;;;;;;;4992749;28;20424;-31
2023/02/02 00:40:25;;;;;;;17.38;4.00;;;;;;;;;;5010975;28;20030;-34
2023/02/02 00:42:52;;;;;;;15.80;3.70;;;;;;;;;;5011176;28;20041;-32
2023/02/02 00:45:19;;;;;;;13.50;4.30;;;;;;;;;;5020600;28;20025;-31
2023/02/02 00:47:50;;;;;;;12.45;3.85;;;;;;;;;;5012660;28;20072;-32
2023/02/02 00:50:20;;;;;;;15.85;3.75;;;;;;;;;;5028938;28;20033;-31
2023/02/02 00:52:49;;;;;;;16.25;3.42;;;;;;;;;;5018589;28;20037;-32
2023/02/02 00:55:17;;;;;;;11.52;3.50;;;;;;;;;;5010359;28;20042;-32
2023/02/02 00:57:44;;;;;;;7.18;3.28;;;;;;;;;;5011086;28;20046;-31
2023/02/02 01:00:13;;;;;;;19.83;3.67;;;;;;;;;;5031499;28;20112;-31
2023/02/02 01:02:40;;;;;;;13.63;3.50;;;;;;;;;;5031497;28;20033;-32
2023/02/02 01:05:07;;;;;;;9.68;3.53;;;;;;;;;;5031205;28;20021;-32
2023/02/02 01:07:34;;;;;;;16.27;3.75;;;;;;;;;;5025284;28;20141;-33
2023/02/02 01:10:01;;;;;;;15.85;4.38;;;;;;;;;;5012576;28;20109;-33
2023/02/02 01:12:28;;;;;;;16.20;4.35;;;;;;;;;;5013197;28;20045;-33
2023/02/02 01:14:55;;;;;;;9.60;3.85;;;;;;;;;;5023889;28;20069;-33
2023/02/02 01:17:22;;;;;;;13.32;3.88;;;;;;;;;;5030616;28;20041;-39
2023/02/02 01:19:49;;;;;;;10.68;3.53;;;;;;;;;;5030501;28;20041;-33
2023/02/02 01:22:16;;;;;;;11.23;4.03;;;;;;;;;;5022165;28;20028;-33
2023/02/02 01:24:43;;;;;;;11.38;3.63;;;;;;;;;;5017581;28;20044;-32
2023/02/02 01:27:10;;;;;;;21.55;4.30;;;;;;;;;;5019667;28;20033;-32
2023/02/02 01:29:37;;;;;;;18.73;4.28;;;;;;;;;;5027511;28;20029;-32
2023/02/02 01:32:04;;;;;;;12.88;3.80;;;;;;;;;;5026432;28;20024;-32
2023/02/02 01:34:31;;;;;;;14.48;4.20;;;;;;;;;;5020999;28;20080;-32
2023/02/02 01:36:58;;;;;;;11.30;4.78;;;;;;;;;;5015098;28;20548;-32
2023/02/02 01:39:25;;;;;;;14.00;5.30;;;;;;;;;;5030109;28;20060;-32
2023/02/02 01:41:52;;;;;;;19.15;5.90;;;;;;;;;;5024595;28;20135;-32
2023/02/02 01:44:37;;;;;;;13.20;6.05;;;;;;;;;;5019036;28;20395;-34
2023/02/02 01:47:04;;;;;;;11.15;5.90;;;;;;;;;;5019894;28;20041;-33
2023/02/02 01:49:31;;;;;;;18.25;7.10;;;;;;;;;;5029714;28;20379;-32
2023/02/02 01:52:00;;;;;;;14.07;6.00;;;;;;;;;;5020419;28;20418;-33
2023/02/02 01:54:32;;;;;;;14.18;5.78;;;;;;;;;;5019410;28;20022;-32
2023/02/02 01:57:03;;;;;;;13.95;5.43;;;;;;;;;;5035134;28;20037;-32
2023/02/02 01:59:30;;;;;;;11.93;5.30;;;;;;;;;;5034775;28;20033;-32
2023/02/02 02:01:57;;;;;;;13.13;5.25;;;;;;;;;;5021389;28;20029;-32
2023/02/02 02:04:25;;;;;;;11.63;4.90;;;;;;;;;;5034809;28;20495;-34
2023/02/02 02:06:53;;;;;;;15.85;4.72;;;;;;;;;;5034569;28;20029;-32
2023/02/02 02:09:20;;;;;;;12.25;4.32;;;;;;;;;;5034493;28;20266;-32
2023/02/02 02:11:47;;;;;;;14.60;4.70;;;;;;;;;;5034659;28;20376;-32
2023/02/02 02:17:19;;;;;;;9.38;4.57;;;;;;;;;;5018462;28;20057;-31
2023/02/02 02:28:13;;;;;;;21.30;4.53;;;;;;;;;;5042775;28;20076;-32
2023/02/02 02:30:53;;;;;;;24.90;4.63;;;;;;;;;;5019258;28;20079;-33
2023/02/02 02:33:29;;;;;;;14.80;4.30;;;;;;;;;;5034365;28;20040;-32
2023/02/02 02:36:01;;;;;;;14.25;4.25;;;;;;;;;;5029296;28;20049;-32
2023/02/02 02:38:38;;;;;;;10.43;3.78;;;;;;;;;;5012352;28;20092;-32
2023/02/02 02:41:23;;;;;;;8.32;3.20;;;;;;;;;;5009273;28;20030;-32
2023/02/02 02:43:58;;;;;;;7.45;3.53;;;;;;;;;;5028396;28;20037;-32
2023/02/02 02:46:27;;;;;;;9.77;3.47;;;;;;;;;;5031421;28;20021;-34
2023/02/02 02:48:58;;;;;;;7.40;3.42;;;;;;;;;;5033681;28;20025;-33
2023/02/02 02:51:43;;;;;;;7.38;3.17;;;;;;;;;;5032435;28;20441;-33
2023/02/02 02:54:15;;;;;;;8.43;3.30;;;;;;;;;;5024752;28;20860;-33
2023/02/02 02:56:42;;;;;;;;;;;;;;;;;;5013409;28;20064;-32
2023/02/02 02:59:21;;;;;;;11.07;3.15;;;;;;;;;;5029417;28;20288;-32
2023/02/02 03:02:03;;;;;;;9.20;3.15;;;;;;;;;;5015288;28;20033;-34
2023/02/02 03:04:33;;;;;;;6.13;2.65;;;;;;;;;;5023599;28;20025;-31
2023/02/02 03:07:04;;;;;;;7.95;3.38;;;;;;;;;;5023478;28;20036;-34
2023/02/02 03:09:34;;;;;;;7.38;3.22;;;;;;;;;;5024874;28;20120;-33
2023/02/02 03:12:04;;;;;;;7.25;2.92;;;;;;;;;;5005864;28;20111;-34
2023/02/02 03:14:35;;;;;;;9.63;3.28;;;;;;;;;;5021140;28;20025;-33
2023/02/02 03:17:02;;;;;;;7.05;2.83;;;;;;;;;;5020943;28;20405;-32
2023/02/02 03:19:29;;;;;;;8.95;2.70;;;;;;;;;;5025483;28;20029;-33
2023/02/02 03:21:57;;;;;;;7.03;2.85;;;;;;;;;;5008100;28;20037;-33
2023/02/02 03:24:24;;;;;;;9.88;3.28;;;;;;;;;;5020098;28;20492;-32
2023/02/02 03:26:51;;;;;;;5.70;2.75;;;;;;;;;;5019891;28;20072;-32
2023/02/02 03:29:19;;;;;;;6.60;2.97;;;;;;;;;;5020520;28;20037;-32
2023/02/02 03:31:46;;;;;;;6.00;3.10;;;;;;;;;;5030744;28;20092;-32
2023/02/02 03:34:13;;;;;;;6.20;3.05;;;;;;;;;;5033348;28;20108;-31
2023/02/02 03:36:40;;;;;;;8.65;3.42;;;;;;;;;;5033174;28;20044;-32
2023/02/02 03:39:07;;;;;;;7.80;3.20;;;;;;;;;;5033170;28;20049;-32
2023/02/02 03:41:34;;;;;;;12.25;3.42;;;;;;;;;;5033196;28;20418;-32
2023/02/02 03:44:01;;;;;;;7.72;3.75;;;;;;;;;;5033181;28;20017;-32
2023/02/02 03:46:28;;;;;;;8.40;3.90;;;;;;;;;;5033127;28;20018;-32
2023/02/02 03:48:55;;;;;;;7.25;4.15;;;;;;;;;;5033102;28;20377;-32
2023/02/02 03:51:22;;;;;;;7.60;4.10;;;;;;;;;;5032834;28;20077;-32
2023/02/02 03:53:49;;;;;;;6.40;4.05;;;;;;;;;;5032870;28;20025;-32
2023/02/02 03:56:18;;;;;;;7.63;3.88;;;;;;;;;;5027097;28;20549;-32
2023/02/02 03:58:46;;;;;;;7.45;3.88;;;;;;;;;;5032912;28;20040;-32
2023/02/02 04:01:14;;;;;;;8.45;3.67;;;;;;;;;;5033172;28;20034;-32
2023/02/02 04:03:41;;;;;;;8.88;3.53;;;;;;;;;;5032709;28;20025;-32
2023/02/02 04:06:08;;;;;;;7.88;3.60;;;;;;;;;;5032855;28;20041;-32
2023/02/02 04:08:35;;;;;;;7.60;3.55;;;;;;;;;;5032710;28;20068;-32
2023/02/02 04:11:02;;;;;;;11.80;3.53;;;;;;;;;;5032972;28;20392;-32
2023/02/02 04:13:29;;;;;;;8.52;3.38;;;;;;;;;;5032555;28;20079;-32
2023/02/02 04:16:00;;;;;;;8.23;3.65;;;;;;;;;;5032172;28;20049;-32
2023/02/02 04:18:27;;;;;;;8.45;3.10;;;;;;;;;;5030304;28;20022;-32
2023/02/02 04:21:01;;;;;;;6.70;3.55;;;;;;;;;;5036754;28;20029;-32
2023/02/02 04:23:28;;;;;;;8.15;3.40;;;;;;;;;;5032682;28;20055;-32
2023/02/02 04:25:56;;;;;;;10.52;3.60;;;;;;;;;;5032178;28;20057;-32
2023/02/02 04:28:23;;;;;;;7.75;3.00;;;;;;;;;;5032383;28;20104;-32
2023/02/02 04:30:50;;;;;;;5.88;3.22;;;;;;;;;;5032327;28;20025;-32
2023/02/02 04:33:17;;;;;;;6.50;3.25;;;;;;;;;;5032358;28;20033;-32
2023/02/02 04:35:44;;;;;;;9.57;3.40;;;;;;;;;;5032131;28;20102;-39
2023/02/02 04:38:12;;;;;;;5.72;3.33;;;;;;;;;;5031476;28;20041;-32
2023/02/02 04:40:42;;;;;;;8.38;3.45;;;;;;;;;;5031469;28;20108;-32
2023/02/02 04:43:10;;;;;;;10.32;3.63;;;;;;;;;;5031983;28;20054;-32
2023/02/02 04:45:37;;;;;;;7.03;3.40;;;;;;;;;;5032033;28;20028;-32
2023/02/02 04:48:04;;;;;;;7.40;3.00;;;;;;;;;;5032269;28;20029;-32
2023/02/02 04:50:32;;;;;;;8.15;3.38;;;;;;;;;;5031882;28;20028;-31
2023/02/02 04:52:58;;;;;;;7.80;3.25;;;;;;;;;;5031845;28;20077;-32
2023/02/02 04:55:25;;;;;;;8.40;2.97;;;;;;;;;;5013429;28;20036;-32
2023/02/02 04:57:53;;;;;;;9.98;3.53;;;;;;;;;;5012831;28;20053;-32
2023/02/02 05:00:20;;;;;;;7.90;3.20;;;;;;;;;;5025842;28;20040;-32
2023/02/02 05:02:47;;;;;;;6.85;3.30;;;;;;;;;;5031083;28;20100;-32
2023/02/02 05:05:14;;;;;;;7.82;3.42;;;;;;;;;;5031862;28;20027;-32
2023/02/02 05:07:41;;;;;;;12.68;3.50;;;;;;;;;;5032190;28;20361;-32
2023/02/02 05:10:09;;;;;;;6.45;3.40;;;;;;;;;;5031720;28;20108;-32
2023/02/02 05:12:36;;;;;;;8.18;3.20;;;;;;;;;;5031745;28;20068;-32
2023/02/02 05:15:04;;;;;;;7.72;3.35;;;;;;;;;;5031787;28;20475;-32
2023/02/02 05:17:31;;;;;;;6.28;3.17;;;;;;;;;;5031791;28;20033;-32
2023/02/02 05:19:58;;;;;;;6.95;3.33;;;;;;;;;;5031692;28;20059;-32
2023/02/02 05:22:25;;;;;;;5.60;3.20;;;;;;;;;;5031721;28;20047;-31
2023/02/02 05:24:52;;;;;;;5.43;3.22;;;;;;;;;;5045325;23;20021;-30
2023/02/02 05:27:19;;;;;;;6.20;2.97;;;;;;;;;;5016958;28;20038;-30
2023/02/02 05:29:47;;;;;;;7.40;3.10;;;;;;;;;;5012831;28;20026;-30
2023/02/02 05:32:14;;;;;;;8.13;3.35;;;;;;;;;;5012124;28;20109;-30
2023/02/02 05:34:41;;;;;;;9.75;3.13;;;;;;;;;;5011757;28;20037;-30
2023/02/02 05:37:08;;;;;;;18.10;4.10;;;;;;;;;;5012121;28;20049;-30
2023/02/02 05:39:35;;;;;;;6.70;3.13;;;;;;;;;;5012115;28;20515;-30
2023/02/02 05:42:02;;;;;;;10.07;3.25;;;;;;;;;;5012067;28;20022;-30
2023/02/02 05:44:29;;;;;;;4.90;3.05;;;;;;;;;;5011790;28;20022;-30
2023/02/02 05:46:56;;;;;;;6.20;3.08;;;;;;;;;;5016615;28;20112;-30
2023/02/02 05:49:23;;;;;;;7.10;2.97;;;;;;;;;;5013925;28;20510;-30
2023/02/02 05:51:51;;;;;;;7.30;3.08;;;;;;;;;;5011930;28;20034;-30
2023/02/02 05:54:19;;;;;;;5.05;2.88;;;;;;;;;;5011760;28;20029;-30
2023/02/02 05:56:47;;;;;;;7.07;2.92;;;;;;;;;;5016305;28;20407;-30
2023/02/02 05:59:14;;;;;;;5.97;3.00;;;;;;;;;;5031599;28;20064;-30
2023/02/02 06:01:41;;;;;;;6.28;3.08;;;;;;;;;;5025102;28;20776;-30
2023/02/02 06:04:08;;;;;;;5.00;2.88;;;;;;;;;;5031862;28;20368;-30
2023/02/02 06:06:36;;;;;;;7.13;3.00;;;;;;;;;;5029069;28;20022;-30
2023/02/02 06:09:04;;;;;;;6.35;3.03;;;;;;;;;;5024315;28;20033;-30
2023/02/02 06:11:31;;;;;;;7.57;3.58;;;;;;;;;;5031374;28;20021;-30
2023/02/02 06:13:58;;;;;;;6.75;2.88;;;;;;;;;;5033391;28;20493;-30
2023/02/02 06:16:25;;;;;;;5.05;3.08;;;;;;;;;;5035077;28;20030;-30
2023/02/02 06:18:52;;;;;;;8.63;3.53;;;;;;;;;;5035215;28;20025;-30
2023/02/02 06:21:22;;;;;;;7.53;3.05;;;;;;;;;;5034778;28;20037;-30
2023/02/02 06:23:48;;;;;;;8.13;3.00;;;;;;;;;;5034951;28;20029;-30
2023/02/02 06:26:16;;;;;;;5.70;2.85;;;;;;;;;;5034580;28;20037;-30
2023/02/02 06:28:43;;;;;;;7.95;2.75;;;;;;;;;;5034790;28;20022;-30
2023/02/02 06:31:12;;;;;;;11.00;2.63;;;;;;;;;;5034990;28;20472;-30
2023/02/02 06:33:39;;;;;;;7.43;2.92;;;;;;;;;;5034590;28;20104;-30
2023/02/02 06:36:06;;;;;;;5.80;2.90;;;;;;;;;;5034363;28;20033;-30
2023/02/02 06:38:33;;;;;;;7.80;3.00;;;;;;;;;;5034599;28;20071;-30
2023/02/02 06:41:01;;;;;;;7.00;2.70;;;;;;;;;;5034524;28;20029;-30
2023/02/02 06:43:28;;;;;;;4.10;2.50;;;;;;;;;;5034638;28;20021;-30
2023/02/02 06:45:58;;;;;;;5.05;2.50;;;;;;;;;;5034540;28;20030;-30
2023/02/02 06:48:26;;;;;;;9.68;2.58;;;;;;;;;;5034288;28;20506;-30
2023/02/02 06:50:53;;;;;;;6.05;2.25;;;;;;;;;;5034438;28;20495;-30
2023/02/02 06:53:23;;;;;;;5.15;2.40;;;;;;;;;;5034489;28;20036;-30
2023/02/02 06:55:56;;;;;;;5.55;2.08;;;;;;;;;;5034270;28;20456;-30
2023/02/02 06:58:23;;;;;;;4.32;2.53;;;;;;;;;;5034256;28;20279;-30
2023/02/02 07:00:50;;;;;;;4.47;2.38;;;;;;;;;;5034345;28;20021;-30
2023/02/02 07:03:20;;;;;;;5.00;2.50;;;;;;;;;;5034003;28;20022;-30
2023/02/02 07:05:47;;;;;;;4.25;1.95;;;;;;;;;;5033934;28;20471;-30
2023/02/02 07:08:14;;;;;;;5.30;2.33;;;;;;;;;;5034196;28;20029;-30
2023/02/02 07:10:43;;;;;;;4.22;2.40;;;;;;;;;;5016594;28;20029;-30
2023/02/02 07:13:10;;;;;;;4.20;2.10;;;;;;;;;;5033938;28;20034;-30
2023/02/02 07:15:40;;;;;;;6.80;3.13;;;;;;;;;;5033776;28;20128;-30
2023/02/02 07:18:07;;;;;;;3.30;2.30;;;;;;;;;;5033926;28;20028;-30
2023/02/02 07:20:34;;;;;;;5.53;2.88;;;;;;;;;;5033974;28;20026;-30
2023/02/02 07:23:03;;;;;;;8.32;3.15;;;;;;;;;;5033929;28;20097;-30
2023/02/02 07:25:30;;;;;;;4.82;2.30;;;;;;;;;;5032777;28;20096;-30
2023/02/02 07:27:57;;;;;;;6.43;2.22;;;;;;;;;;5033574;28;20102;-30
2023/02/02 07:30:28;;;;;;;8.93;2.58;;;;;;;;;;5033789;28;20036;-30
2023/02/02 07:32:56;;;;;;;4.65;1.80;;;;;;;;;;5033518;28;20033;-30
2023/02/02 07:35:23;;;;;;;5.15;2.33;;;;;;;;;;5033291;28;20038;-30
2023/02/02 07:37:53;;;;;;;6.80;2.10;;;;;;;;;;5033628;28;20025;-30
2023/02/02 07:40:20;;;;;;;6.85;2.30;;;;;;;;;;5033612;28;20025;-30
2023/02/02 07:42:48;;;;;;;4.25;2.22;;;;;;;;;;5033397;28;20031;-30
2023/02/02 07:45:15;;;;;;;3.97;2.30;;;;;;;;;;5033437;28;20026;-30
2023/02/02 07:47:42;;;;;;;6.15;2.10;;;;;;;;;;5033578;28;20036;-30
2023/02/02 07:50:09;;;;;;;4.72;2.13;;;;;;;;;;5033394;28;20543;-30
2023/02/02 07:52:36;;;;;;;4.93;2.42;;;;;;;;;;5033205;28;20364;-30
2023/02/02 07:55:03;;;;;;;6.88;2.13;;;;;;;;;;5033000;28;20037;-30
2023/02/02 07:57:30;;;;;;;6.25;2.25;;;;;;;;;;5033288;28;20017;-30
2023/02/02 07:59:57;;;;;;;6.13;2.50;;;;;;;;;;5032989;28;20021;-30
2023/02/02 08:02:24;;;;;;;6.30;2.30;;;;;;;;;;5033214;28;20510;-30
2023/02/02 08:04:51;;;;;;;4.95;2.03;;;;;;;;;;5032920;28;20044;-30
2023/02/02 08:07:20;;;;;;;5.28;2.15;;;;;;;;;;5033069;28;20025;-30
2023/02/02 08:09:47;;;;;;;5.68;2.10;;;;;;;;;;5032876;28;20116;-30
2023/02/02 08:12:14;;;;;;;4.28;2.10;;;;;;;;;;5032883;28;20109;-30
2023/02/02 08:14:41;;;;;;;4.25;2.15;;;;;;;;;;5032671;28;20025;-30
2023/02/02 08:17:08;;;;;;;4.90;2.40;;;;;;;;;;5032858;28;20027;-30
2023/02/02 08:19:35;;;;;;;4.70;2.30;;;;;;;;;;5032795;28;20049;-30
2023/02/02 08:22:02;;;;;;;7.00;2.35;;;;;;;;;;5032811;28;20033;-30
2023/02/02 08:24:29;;;;;;;4.63;2.20;;;;;;;;;;5032673;28;20108;-30
2023/02/02 08:26:56;;;;;;;6.38;2.50;;;;;;;;;;5032464;28;20096;-30
2023/02/02 08:29:23;;;;;;;6.53;2.58;;;;;;;;;;5032672;28;20044;-30
2023/02/02 08:31:50;;;;;;;2.90;1.90;;;;;;;;;;5032466;28;20057;-30
2023/02/02 08:34:17;;;;;;;4.65;1.85;;;;;;;;;;5032228;28;20026;-30
2023/02/02 08:36:44;;;;;;;3.67;2.13;;;;;;;;;;5032332;28;20037;-30
2023/02/02 08:39:12;;;;;;;5.38;2.10;;;;;;;;;;5032436;28;20500;-30
2023/02/02 08:41:40;;;;;;;4.72;1.90;;;;;;;;;;5032380;28;20395;-30
2023/02/02 08:44:07;;;;;;;5.90;2.33;;;;;;;;;;5032367;28;20029;-30
2023/02/02 08:46:34;;;;;;;5.30;2.20;;;;;;;;;;5032188;28;20022;-30
2023/02/02 08:49:01;;;;;;;4.60;2.17;;;;;;;;;;5032376;28;20536;-30
2023/02/02 08:51:28;;;;;;;3.17;2.30;;;;;;;;;;5032290;28;20423;-30
2023/02/02 08:53:55;;;;;;;6.65;2.50;;;;;;;;;;5032472;28;20029;-30
2023/02/02 08:56:23;;;;;;;4.18;2.38;;;;;;;;;;5032086;28;20087;-30
2023/02/02 08:58:51;;;;;;;3.92;2.13;;;;;;;;;;5032290;28;20036;-30
2023/02/02 09:01:20;;;;;;;7.10;2.40;;;;;;;;;;5032056;28;20442;-30
2023/02/02 09:03:47;;;;;;;6.25;2.78;;;;;;;;;;5031923;28;20060;-30
2023/02/02 09:06:18;;;;;;;8.60;2.70;;;;;;;;;;5032080;28;20068;-30
2023/02/02 09:08:46;;;;;;;5.05;2.58;;;;;;;;;;5032006;28;20026;-30
2023/02/02 09:11:14;;;;;;;7.07;2.72;;;;;;;;;;5032025;28;20487;-30
2023/02/02 09:13:44;;;;;;;5.78;2.20;;;;;;;;;;5032022;28;20033;-30
2023/02/02 09:16:12;;;;;;;6.43;2.53;;;;;;;;;;5031691;28;20063;-30
2023/02/02 09:18:39;;;;;;;5.53;2.38;;;;;;;;;;5031995;28;20040;-30
2023/02/02 09:21:07;;;;;;;6.68;2.20;;;;;;;;;;5031824;28;20120;-30
2023/02/02 09:23:35;;;;;;;5.15;2.15;;;;;;;;;;5031931;28;20029;-30
2023/02/02 09:26:12;;;;;;;7.25;2.42;;;;;;;;;;5031636;28;20056;-30
2023/02/02 09:28:40;;;;;;;5.50;2.40;;;;;;;;;;5031860;28;20028;-30
2023/02/02 09:31:08;;;;;;;6.85;2.97;;;;;;;;;;5031755;28;20037;-30
2023/02/02 09:33:35;;;;;;;7.25;2.08;;;;;;;;;;5031798;28;20029;-30
2023/02/02 09:36:06;;;;;;;5.57;1.90;;;;;;;;;;5031596;28;20033;-30
2023/02/02 09:38:33;;;;;;;5.85;2.60;;;;;;;;;;5031591;28;20028;-30
2023/02/02 09:41:00;;;;;;;6.00;2.75;;;;;;;;;;5031527;28;20368;-30
2023/02/02 09:43:27;;;;;;;10.02;2.90;;;;;;;;;;5031267;28;20033;-30
2023/02/02 09:46:14;;;;;;;5.03;2.20;;;;;;;;;;5031520;28;20407;-30
2023/02/02 09:49:13;;;;;;;13.45;2.90;;;;;;;;;;5033217;28;20041;-30
2023/02/02 09:51:43;;;;;;;10.85;3.00;;;;;;;;;;4981819;28;20048;-30
2023/02/02 09:54:21;;;;;;;7.45;2.30;;;;;;;;;;5035415;28;20025;-30
2023/02/02 09:56:54;;;;;;;13.63;2.60;;;;;;;;;;5035100;28;20112;-30
2023/02/02 09:59:27;;;;;;;7.28;2.60;;;;;;;;;;5035372;28;20055;-30
2023/02/02 10:01:57;;;;;;;9.35;2.60;;;;;;;;;;5035390;28;20033;-30
2023/02/02 10:04:24;;;;;;;4.95;2.47;;;;;;;;;;5035289;28;20088;-30
2023/02/02 10:06:52;;;;;;;5.70;2.60;;;;;;;;;;5035258;28;20091;-30
2023/02/02 10:09:31;;;;;;;6.78;2.50;;;;;;;;;;5035163;28;20021;-30
2023/02/02 10:12:05;;;;;;;7.65;2.65;;;;;;;;;;5035206;28;20029;-30
2023/02/02 10:14:38;;;;;;;8.75;2.50;;;;;;;;;;5034866;28;20091;-30
2023/02/02 10:17:23;;;;;;;7.35;2.50;;;;;;;;;;5035064;28;20033;-30
2023/02/02 10:19:53;;;;;;;4.70;2.47;;;;;;;;;;5034900;28;20048;-30
2023/02/02 10:22:22;;;;;;;4.72;2.63;;;;;;;;;;5035033;28;20025;-30
2023/02/02 10:24:49;;;;;;;10.98;3.13;;;;;;;;;;5034596;28;20044;-30
2023/02/02 10:27:17;;;;;;;13.02;2.80;;;;;;;;;;5034951;28;20034;-30
2023/02/02 10:29:55;;;;;;;7.70;3.10;;;;;;;;;;5034795;28;20029;-30
2023/02/02 10:32:27;;;;;;;7.72;2.80;;;;;;;;;;5034917;28;20491;-30
2023/02/02 10:34:56;;;;;;;6.40;3.05;;;;;;;;;;5034113;28;20041;-30
2023/02/02 10:37:31;;;;;;;9.63;2.90;;;;;;;;;;5034656;28;20028;-30
2023/02/02 10:40:21;;;;;;;9.60;3.00;;;;;;;;;;5017185;28;20041;-30
2023/02/02 10:45:48;;;;;;;5.82;2.67;;;;;;;;;;5034481;28;20036;-30
2023/02/02 10:48:16;;;;;;;4.75;2.60;;;;;;;;;;5034568;28;20021;-30
2023/02/02 10:50:45;;;;;;;4.75;2.30;;;;;;;;;;5034367;28;20108;-30
2023/02/02 10:53:13;;;;;;;3.28;1.95;;;;;;;;;;5034494;28;20468;-30
2023/02/02 10:56:13;;;;;;;6.43;2.50;;;;;;;;;;5034124;28;20048;-30
2023/02/02 10:59:00;;;;;;;6.30;2.15;;;;;;;;;;4980405;28;20029;-30
2023/02/02 11:01:27;;;;;;;8.48;3.05;;;;;;;;;;5033258;28;20025;-30
2023/02/02 11:06:48;;;;;;;5.18;2.25;;;;;;;;;;5034281;28;20040;-30
2023/02/02 11:09:17;;;;;;;6.63;2.40;;;;;;;;;;5034115;28;20395;-30
2023/02/02 11:11:46;;;;;;;7.10;2.67;;;;;;;;;;5034104;28;20082;-30
2023/02/02 11:14:30;;;;;;;5.20;2.40;;;;;;;;;;5033837;28;20021;-30
2023/02/02 11:17:03;;;;;;;7.25;2.85;;;;;;;;;;5033819;28;20411;-30
2023/02/02 11:19:31;;;;;;;4.90;2.60;;;;;;;;;;5034004;28;20422;-30
2023/02/02 11:22:02;;;;;;;8.55;2.50;;;;;;;;;;5033643;28;20060;-30
2023/02/02 11:24:35;;;;;;;5.67;3.00;;;;;;;;;;5033624;28;20442;-30
2023/02/02 11:27:02;;;;;;;9.95;3.35;;;;;;;;;;5013938;28;20099;-30
2023/02/02 11:29:41;;;;;;;9.07;3.00;;;;;;;;;;5013918;28;20467;-30
2023/02/02 11:32:29;;;;;;;7.85;2.80;;;;;;;;;;5013967;28;20076;-30
2023/02/02 11:35:08;;;;;;;6.65;2.70;;;;;;;;;;5013552;28;20109;-30
2023/02/02 11:37:36;;;;;;;8.10;2.72;;;;;;;;;;5013871;28;20070;-30
2023/02/02 11:40:24;;;;;;;6.50;2.58;;;;;;;;;;5013675;28;20030;-30
2023/02/02 11:42:52;;;;;;;9.85;2.25;;;;;;;;;;4965544;28;20041;-30
2023/02/02 11:45:21;;;;;;;11.48;2.88;;;;;;;;;;5013507;28;20030;-30
2023/02/02 11:47:50;;;;;;;9.27;2.83;;;;;;;;;;5013464;28;20061;-30
2023/02/02 11:50:26;;;;;;;7.90;2.60;;;;;;;;;;5013701;28;20507;-30
2023/02/02 11:52:53;;;;;;;7.57;2.30;;;;;;;;;;5013453;28;20029;-30
2023/02/02 11:55:25;;;;;;;5.10;2.30;;;;;;;;;;5013289;28;20030;-30
2023/02/02 11:58:17;;;;;;;9.85;2.40;;;;;;;;;;5013402;28;20433;-30
2023/02/02 12:00:48;;;;;;;7.45;2.35;;;;;;;;;;5013299;28;20400;-30
2023/02/02 12:03:26;;;;;;;4.72;2.05;;;;;;;;;;5013426;28;20480;-30
2023/02/02 12:05:53;;;;;;;8.23;2.10;;;;;;;;;;5013184;28;20029;-30
2023/02/02 12:08:21;;;;;;;7.63;2.47;;;;;;;;;;5013150;28;20449;-30
2023/02/02 12:11:13;;;;;;;6.90;2.13;;;;;;;;;;5012484;28;20033;-30
2023/02/02 12:13:56;;;;;;;7.60;1.95;;;;;;;;;;5009639;28;20084;-30
2023/02/02 12:16:36;;;;;;;4.20;2.15;;;;;;;;;;5012956;28;20096;-30
2023/02/02 12:19:17;;;;;;;6.93;1.90;;;;;;;;;;5012936;28;20057;-30
2023/02/02 12:21:44;;;;;;;5.47;1.90;;;;;;;;;;5013017;28;20129;-30
2023/02/02 12:24:28;;;;;;;5.10;1.85;;;;;;;;;;5012797;28;20116;-30
2023/02/02 12:27:01;;;;;;;9.27;1.75;;;;;;;;;;5031569;28;20037;-30
2023/02/02 12:29:46;;;;;;;4.78;1.40;;;;;;;;;;5032471;28;20028;-30
2023/02/02 12:32:21;;;;;;;6.15;2.10;;;;;;;;;;5032603;28;20048;-30
2023/02/02 12:34:51;;;;;;;7.47;1.75;;;;;;;;;;5032410;28;20021;-30
2023/02/02 12:37:18;;;;;;;7.15;1.70;;;;;;;;;;5032515;28;20032;-30
2023/02/02 12:39:51;;;;;;;6.97;1.55;;;;;;;;;;5032542;28;20151;-30
2023/02/02 12:42:28;;;;;;;7.55;1.75;;;;;;;;;;5032435;28;20435;-30
2023/02/02 12:45:04;;;;;;;4.25;1.60;;;;;;;;;;5032117;28;20021;-30
2023/02/02 12:47:40;;;;;;;6.47;1.65;;;;;;;;;;5032264;28;20048;-30
2023/02/02 12:50:17;;;;;;;7.20;1.30;;;;;;;;;;5032132;28;20116;-30
2023/02/02 12:52:53;;;;;;;6.78;1.90;;;;;;;;;;5032157;28;20128;-30
2023/02/02 12:55:23;;;;;;;7.00;2.28;;;;;;;;;;5032088;28;20033;-30
2023/02/02 12:57:50;;;;;;;5.57;1.98;;;;;;;;;;5032167;28;20472;-30
2023/02/02 13:00:37;;;;;;;8.02;2.65;;;;;;;;;;5031960;28;20038;-30
2023/02/02 13:03:22;;;;;;;5.80;1.60;;;;;;;;;;5031920;28;20037;-30
2023/02/02 13:06:08;;;;;;;6.05;1.80;;;;;;;;;;5031791;28;20025;-30
2023/02/02 13:08:50;;;;;;;4.38;1.48;;;;;;;;;;5031852;28;20144;-30
2023/02/02 13:11:29;;;;;;;;;;;;;;;;;;5032467;28;20099;-30
2023/02/02 13:14:19;;;;;;;6.47;1.40;;;;;;;;;;5031928;28;20000;-30
2023/02/02 13:16:48;;;;;;;5.70;1.35;;;;;;;;;;5019473;28;20057;-30
2023/02/02 13:19:21;;;;;;;10.35;1.70;;;;;;;;;;5031919;28;20557;-30
2023/02/02 13:21:47;;;;;;;;;;;;;;;;;;5032331;28;20470;-30
2023/02/02 13:24:15;;;;;;;4.03;1.60;;;;;;;;;;5030946;28;19916;-30
2023/02/02 13:26:44;;;;;;;3.50;1.40;;;;;;;;;;5031655;28;20050;-30
2023/02/02 13:29:11;;;;;;;8.70;1.98;;;;;;;;;;5031950;28;20072;-30
2023/02/02 13:31:42;;;;;;;8.63;1.70;;;;;;;;;;5031669;28;20037;-30
2023/02/02 13:34:21;;;;;;;14.60;1.90;;;;;;;;;;5031577;28;20022;-30
2023/02/02 13:36:54;;;;;;;8.27;2.22;;;;;;;;;;5031710;28;20029;-30
2023/02/02 13:39:33;;;;;;;5.32;1.70;;;;;;;;;;5031656;28;20030;-30
2023/02/02 13:42:01;;;;;;;10.95;1.55;;;;;;;;;;5031618;28;20060;-30
2023/02/02 13:44:37;;;;;;;5.85;1.55;;;;;;;;;;5031460;28;20037;-30
2023/02/02 13:47:11;;;;;;;13.32;1.92;;;;;;;;;;5031547;28;20132;-30
2023/02/02 13:49:50;;;;;;;5.45;1.50;;;;;;;;;;5031687;28;20100;-30
2023/02/02 13:52:17;;;;;;;8.98;2.47;;;;;;;;;;5031650;28;20055;-30
2023/02/02 13:54:49;;;;;;;4.70;1.70;;;;;;;;;;5031573;28;20095;-30
2023/02/02 13:57:22;;;;;;;4.53;1.50;;;;;;;;;;5031798;28;20045;-30
2023/02/02 13:59:52;;;;;;;6.03;1.70;;;;;;;;;;5031562;28;20033;-30
2023/02/02 14:02:32;;;;;;;6.95;1.88;;;;;;;;;;5031403;28;20559;-30
2023/02/02 14:05:00;;;;;;;3.50;1.40;;;;;;;;;;5031203;28;20113;-30
2023/02/02 14:07:47;;;;;;;4.90;1.52;;;;;;;;;;5031536;28;20056;-30
2023/02/02 14:10:25;;;;;;;10.75;1.65;;;;;;;;;;5035553;28;20487;-30
2023/02/02 14:12:52;;;;;;;5.07;1.73;;;;;;;;;;5041070;28;20030;-30
2023/02/02 14:15:20;;;;;;;3.53;1.30;;;;;;;;;;5033583;28;20065;-30
2023/02/02 14:17:46;;;;;;;5.88;1.65;;;;;;;;;;5031241;28;20483;-30
2023/02/02 14:20:31;;;;;;;8.73;1.80;;;;;;;;;;5031062;28;20029;-30
2023/02/02 14:22:58;;;;;;;10.07;1.88;;;;;;;;;;5030240;28;20044;-30
2023/02/02 14:25:32;;;;;;;7.78;1.50;;;;;;;;;;5026812;28;20510;-31
2023/02/02 14:28:00;;;;;;;60.05;4.47;;;;;;;;;;5029247;28;20040;-30
2023/02/02 14:30:31;;;;;;;8.77;2.10;;;;;;;;;;5030422;28;20427;-31
2023/02/02 14:33:17;;;;;;;14.48;2.20;;;;;;;;;;5030426;28;20033;-30
2023/02/02 14:35:44;;;;;;;14.30;2.25;;;;;;;;;;5033598;28;20315;-30
2023/02/02 14:38:31;;;;;;;10.07;1.60;;;;;;;;;;5037895;28;20562;-30
2023/02/02 14:43:43;;;;;;;12.20;2.05;;;;;;;;;;5025554;28;20499;-30
2023/02/02 14:44:04;;;;;;;9.57;1.70;;;;;;;;;;5044985;28;20033;-30
2023/02/02 14:46:36;;;;;;;9.45;2.00;;;;;;;;;;5042605;28;20380;-30
2023/02/02 14:49:03;;;;;;;20.40;2.67;;;;;;;;;;5041555;28;20104;-30
2023/02/02 14:51:32;;;;;;;21.50;2.50;;;;;;;;;;5043377;28;20021;-30
2023/02/02 14:54:07;;;;;;;9.90;2.45;;;;;;;;;;5041953;28;20070;-30
2023/02/02 14:56:48;;;;;;;10.20;2.85;;;;;;;;;;5041449;28;20396;-29
2023/02/02 14:59:33;;;;;;;6.72;2.28;;;;;;;;;;5040350;28;20028;-30
2023/02/02 15:02:00;;;;;;;16.17;2.38;;;;;;;;;;5043612;28;20026;-30
2023/02/02 15:04:28;;;;;;;14.15;2.58;;;;;;;;;;5039847;28;20025;-30
2023/02/02 15:06:55;;;;;;;21.35;2.63;;;;;;;;;;5043268;28;20545;-30
2023/02/02 15:09:22;;;;;;;13.90;2.20;;;;;;;;;;5050498;28;20483;-30
2023/02/02 15:12:01;;;;;;;17.85;2.60;;;;;;;;;;5052541;28;20119;-30
2023/02/02 15:14:28;;;;;;;14.48;2.70;;;;;;;;;;5053347;28;20075;-29
2023/02/02 15:16:55;;;;;;;15.07;2.85;;;;;;;;;;5053269;28;20029;-30